Time;durP1;ratioP1;P1;durP2;ratioP2;P2;SDS_P1;SDS_P2;PMS_P1;PMS_P2;Temp;Humidity;BMP_temperature;BMP_pressure;BME280_temperature;BME280_humidity;BME280_pressure;Samples;Min_cycle;Max_cycle;Signal;HPM_P1;HPM_P2
2022/12/09 00:01:30;;;;;;;10.17;7.30;;;;;;;-1.17;100.00;97118.47;5096112;28;20547;-72
2022/12/09 00:03:56;;;;;;;10.83;8.20;;;;;;;-1.11;100.00;97104.78;5096150;28;20436;-72
2022/12/09 00:06:25;;;;;;;10.47;7.63;;;;;;;-1.13;100.00;97111.94;5096051;28;20439;-72
2022/12/09 00:08:52;;;;;;;10.87;7.53;;;;;;;-1.13;100.00;97105.94;5095925;28;20476;-72
2022/12/09 00:11:20;;;;;;;9.03;7.07;;;;;;;-1.15;100.00;97103.50;5095904;28;20494;-72
2022/12/09 00:13:50;;;;;;;10.57;7.33;;;;;;;-1.14;100.00;97102.50;5095943;28;20210;-72
2022/12/09 00:16:17;;;;;;;10.87;8.40;;;;;;;-1.05;100.00;97104.09;5095889;28;20592;-72
2022/12/09 00:18:44;;;;;;;16.10;8.43;;;;;;;-1.12;100.00;97097.13;5095831;28;20444;-72
2022/12/09 00:21:21;;;;;;;11.53;7.77;;;;;;;-1.05;100.00;97090.22;5095749;28;20542;-72
2022/12/09 00:23:49;;;;;;;10.13;8.60;;;;;;;-1.09;100.00;97091.56;5095752;28;20191;-72
2022/12/09 00:26:16;;;;;;;12.73;8.43;;;;;;;-1.10;100.00;97082.09;5096522;28;20442;-72
2022/12/09 00:28:43;;;;;;;13.97;8.23;;;;;;;-1.13;100.00;97087.69;5095635;28;20528;-73
2022/12/09 00:31:13;;;;;;;14.00;8.00;;;;;;;-1.18;100.00;97082.97;5095469;28;20459;-72
2022/12/09 00:33:40;;;;;;;11.53;8.20;;;;;;;-1.18;100.00;97077.75;5095318;28;20195;-72
2022/12/09 00:36:29;;;;;;;11.97;8.40;;;;;;;-1.25;100.00;97089.03;5095427;28;20207;-72
2022/12/09 00:38:57;;;;;;;12.17;8.13;;;;;;;-1.23;100.00;97084.44;5096347;28;20421;-72
2022/12/09 00:41:24;;;;;;;12.03;8.57;;;;;;;-1.25;100.00;97074.22;5095332;28;20483;-72
2022/12/09 00:43:50;;;;;;;13.17;8.63;;;;;;;-1.21;100.00;97064.25;5095316;28;20531;-72
2022/12/09 00:46:17;;;;;;;14.80;9.33;;;;;;;-1.24;100.00;97077.59;5095306;28;20440;-72
2022/12/09 00:48:45;;;;;;;14.63;8.03;;;;;;;-1.17;100.00;97073.34;5095139;28;20480;-72
2022/12/09 00:51:15;;;;;;;13.53;9.13;;;;;;;-1.27;100.00;97083.97;5094992;28;20593;-72
2022/12/09 00:53:42;;;;;;;15.27;9.20;;;;;;;-1.36;100.00;97077.16;5095280;28;20431;-72
2022/12/09 00:56:08;;;;;;;13.13;9.13;;;;;;;-1.43;100.00;97073.63;5094886;28;20436;-72
2022/12/09 00:58:34;;;;;;;12.17;8.83;;;;;;;-1.35;100.00;97078.78;5094988;28;20428;-72
2022/12/09 01:01:01;;;;;;;11.60;8.53;;;;;;;-1.35;100.00;97080.59;5095005;28;20518;-72
2022/12/09 01:03:27;;;;;;;16.27;9.20;;;;;;;-1.35;100.00;97086.59;5094923;28;20436;-72
2022/12/09 01:05:55;;;;;;;12.47;8.07;;;;;;;-1.42;100.00;97079.63;5094915;28;20438;-72
2022/12/09 01:08:21;;;;;;;11.07;8.50;;;;;;;-1.45;100.00;97080.78;5094659;28;20472;-72
2022/12/09 01:10:48;;;;;;;10.83;7.97;;;;;;;-1.50;100.00;97077.88;5094759;28;20811;-72
2022/12/09 01:13:15;;;;;;;12.37;8.83;;;;;;;-1.44;100.00;97085.00;5094505;28;20953;-72
2022/12/09 01:15:42;;;;;;;14.47;8.90;;;;;;;-1.46;100.00;97089.59;5094333;28;20439;-72
2022/12/09 01:18:10;;;;;;;13.03;9.10;;;;;;;-1.52;100.00;97090.28;5094431;28;20444;-72
2022/12/09 01:20:37;;;;;;;12.10;8.53;;;;;;;-1.55;100.00;97093.19;5094295;28;20957;-72
2022/12/09 01:23:03;;;;;;;13.67;8.87;;;;;;;-1.57;100.00;97087.31;5094241;28;20447;-72
2022/12/09 01:25:30;;;;;;;13.50;7.80;;;;;;;-1.68;100.00;97084.25;5094603;28;20788;-72
2022/12/09 01:27:56;;;;;;;13.70;8.30;;;;;;;-1.62;100.00;97087.03;5094435;28;20476;-72
2022/12/09 01:30:22;;;;;;;9.53;7.07;;;;;;;-1.66;100.00;97074.50;5094274;28;20447;-73
2022/12/09 01:32:49;;;;;;;13.77;8.63;;;;;;;-1.69;100.00;97078.25;5094303;28;20468;-73
2022/12/09 01:35:15;;;;;;;10.17;7.47;;;;;;;-1.70;100.00;97078.44;5094415;28;20522;-72
2022/12/09 01:37:42;;;;;;;9.20;6.97;;;;;;;-1.63;100.00;97074.19;5094051;28;20919;-72
2022/12/09 01:40:14;;;;;;;11.00;7.90;;;;;;;-1.61;100.00;97072.22;5093974;28;20927;-72
2022/12/09 01:42:40;;;;;;;11.77;7.77;;;;;;;-1.69;100.00;97080.88;5094180;28;20551;-72
2022/12/09 01:45:22;;;;;;;9.93;8.07;;;;;;;-1.67;100.00;97073.69;5094199;28;20447;-72
2022/12/09 01:47:51;;;;;;;11.27;7.50;;;;;;;-1.65;100.00;97069.13;5093768;28;20479;-72
2022/12/09 01:50:18;;;;;;;9.97;7.37;;;;;;;-1.67;100.00;97065.88;5094156;28;20492;-72
2022/12/09 01:52:46;;;;;;;11.53;7.13;;;;;;;-1.54;100.00;97060.16;5093860;28;20946;-72
2022/12/09 01:55:13;;;;;;;9.07;7.47;;;;;;;-1.45;100.00;97054.72;5093790;28;20854;-72
2022/12/09 01:57:40;;;;;;;9.50;7.07;;;;;;;-1.40;100.00;97062.84;5093574;28;20432;-72
2022/12/09 02:00:07;;;;;;;9.50;7.27;;;;;;;-1.53;100.00;97057.34;5093642;28;20519;-72
2022/12/09 02:02:36;;;;;;;11.20;7.27;;;;;;;-1.69;100.00;97062.63;5093871;28;20452;-72
2022/12/09 02:05:04;;;;;;;9.70;7.33;;;;;;;-1.69;100.00;97060.03;5093878;28;20443;-72
2022/12/09 02:07:30;;;;;;;9.40;7.40;;;;;;;-1.78;100.00;97052.38;5093656;28;20485;-72
2022/12/09 02:09:57;;;;;;;10.80;7.93;;;;;;;-1.77;100.00;97047.00;5093847;28;20443;-72
2022/12/09 02:12:34;;;;;;;10.93;6.73;;;;;;;-1.78;100.00;97034.97;5093764;28;20456;-72
2022/12/09 02:15:05;;;;;;;10.00;6.83;;;;;;;-1.81;100.00;97027.50;5093799;28;20429;-72
2022/12/09 02:17:40;;;;;;;8.33;6.20;;;;;;;-1.84;100.00;97022.63;5093732;28;20420;-72
2022/12/09 02:20:21;;;;;;;7.80;6.47;;;;;;;-1.84;100.00;97014.81;5093714;28;20438;-72
2022/12/09 02:22:59;;;;;;;10.03;6.33;;;;;;;-1.82;100.00;97020.66;5093723;28;20522;-72
2022/12/09 02:25:48;;;;;;;10.57;6.87;;;;;;;-1.99;100.00;97013.84;5093713;28;20428;-72
2022/12/09 02:28:52;;;;;;;9.50;6.80;;;;;;;-1.84;100.00;97019.19;5093636;28;20559;-72
2022/12/09 02:31:54;;;;;;;8.63;6.73;;;;;;;-1.89;100.00;97024.91;5093561;28;20456;-72
2022/12/09 02:34:22;;;;;;;10.77;6.87;;;;;;;-1.89;100.00;97019.69;5093592;28;20525;-72
2022/12/09 02:36:51;;;;;;;9.87;6.70;;;;;;;-1.91;100.00;97023.44;5093622;28;20436;-72
2022/12/09 02:39:24;;;;;;;7.97;6.50;;;;;;;-2.01;100.00;97026.25;5093519;28;20442;-72
2022/12/09 02:41:52;;;;;;;9.90;6.67;;;;;;;-1.89;100.00;97017.09;5093459;28;20456;-72
2022/12/09 02:44:21;;;;;;;8.77;6.90;;;;;;;-2.01;100.00;97015.84;5093540;28;20436;-72
2022/12/09 02:46:49;;;;;;;7.67;6.47;;;;;;;-2.07;100.00;97013.88;5093190;28;20444;-72
2022/12/09 02:49:16;;;;;;;8.60;6.90;;;;;;;-2.06;100.00;97014.69;5093867;28;20827;-72
2022/12/09 02:51:45;;;;;;;12.10;7.27;;;;;;;-2.03;100.00;97012.56;5093153;28;20475;-72
2022/12/09 02:54:15;;;;;;;9.63;7.07;;;;;;;-2.01;100.00;97004.59;5093381;28;20440;-72
2022/12/09 02:56:49;;;;;;;10.33;7.10;;;;;;;-2.07;100.00;96997.47;5093068;28;20942;-72
2022/12/09 02:59:16;;;;;;;12.67;7.67;;;;;;;-2.11;100.00;96996.16;5093456;28;20435;-72
2022/12/09 03:01:56;;;;;;;10.70;7.53;;;;;;;-2.11;100.00;96983.97;5093285;28;20452;-72
2022/12/09 03:04:26;;;;;;;10.13;7.77;;;;;;;-2.17;100.00;96992.44;5093877;28;20431;-72
2022/12/09 03:06:55;;;;;;;10.77;8.17;;;;;;;-2.11;100.00;96986.56;5093263;28;20436;-72
2022/12/09 03:09:37;;;;;;;10.57;7.67;;;;;;;-2.14;100.00;96984.28;5095633;28;20478;-72
2022/12/09 03:12:08;;;;;;;12.17;8.27;;;;;;;-2.11;100.00;96983.16;5097159;28;20456;-72
2022/12/09 03:14:41;;;;;;;12.23;8.30;;;;;;;-2.07;100.00;96982.63;5096880;28;20421;-72
2022/12/09 03:17:16;;;;;;;10.07;8.43;;;;;;;-2.13;100.00;96978.09;5097103;28;20426;-72
2022/12/09 03:19:47;;;;;;;11.23;7.97;;;;;;;-2.25;100.00;96963.81;5096959;28;20416;-72
2022/12/09 03:22:20;;;;;;;10.33;8.30;;;;;;;-2.32;100.00;96960.25;5096957;28;20452;-72
2022/12/09 03:24:55;;;;;;;11.23;8.17;;;;;;;-2.16;100.00;96959.41;5096942;28;20428;-72
2022/12/09 03:27:31;;;;;;;12.77;7.87;;;;;;;-2.27;100.00;96970.16;5096614;28;20420;-72
2022/12/09 03:30:00;;;;;;;10.87;8.63;;;;;;;-2.30;100.00;96960.88;5096408;28;20468;-72
2022/12/09 03:32:28;;;;;;;10.83;8.70;;;;;;;-2.23;100.00;96961.84;5096274;28;20460;-72
2022/12/09 03:35:02;;;;;;;11.63;7.83;;;;;;;-2.21;100.00;96961.69;5096616;28;20448;-72
2022/12/09 03:37:30;;;;;;;11.03;8.13;;;;;;;-2.22;100.00;96960.88;5096582;28;20427;-72
2022/12/09 03:39:59;;;;;;;11.20;7.43;;;;;;;-2.18;100.00;96966.56;5096382;28;20429;-72
2022/12/09 03:42:36;;;;;;;10.37;7.80;;;;;;;-2.15;100.00;96966.22;5096331;28;20456;-72
2022/12/09 03:45:09;;;;;;;10.33;7.80;;;;;;;-2.20;100.00;96963.31;5096554;28;20463;-72
2022/12/09 03:47:36;;;;;;;13.13;8.43;;;;;;;-2.22;100.00;96955.66;5096076;28;20417;-72
2022/12/09 03:50:04;;;;;;;13.97;8.20;;;;;;;-2.30;100.00;96952.28;5096260;28;20476;-72
2022/12/09 03:52:48;;;;;;;10.97;7.97;;;;;;;-2.26;100.00;96943.97;5095985;28;20494;-72
2022/12/09 03:55:27;;;;;;;10.70;7.33;;;;;;;-2.20;100.00;96948.53;5096377;28;20424;-72
2022/12/09 03:57:57;;;;;;;10.60;7.60;;;;;;;-2.12;100.00;96958.09;5096299;28;20420;-72
2022/12/09 04:00:24;;;;;;;10.37;7.87;;;;;;;-2.12;100.00;96961.50;5096157;28;20421;-72
2022/12/09 04:02:50;;;;;;;10.47;7.83;;;;;;;-2.15;100.00;96958.41;5096137;28;20458;-72
2022/12/09 04:05:17;;;;;;;13.80;8.13;;;;;;;-2.14;100.00;96958.25;5095698;28;20954;-72
2022/12/09 04:07:43;;;;;;;12.53;8.10;;;;;;;-2.15;100.00;96961.03;5095663;28;20927;-72
2022/12/09 04:10:10;;;;;;;10.77;6.63;;;;;;;-2.24;100.00;96955.03;5095856;28;20480;-72
2022/12/09 04:12:38;;;;;;;8.97;7.37;;;;;;;-2.32;100.00;96951.63;5095923;28;20538;-72
2022/12/09 04:15:06;;;;;;;11.60;7.60;;;;;;;-2.35;100.00;96957.97;5095911;28;20502;-72
2022/12/09 04:17:32;;;;;;;10.63;8.10;;;;;;;-2.34;100.00;96961.41;5095512;28;20454;-72
2022/12/09 04:19:58;;;;;;;14.67;8.43;;;;;;;-2.26;100.00;96948.38;5095219;28;20428;-72
2022/12/09 04:22:25;;;;;;;11.33;7.50;;;;;;;-2.19;100.00;96944.09;5095597;28;20464;-72
2022/12/09 04:24:51;;;;;;;13.10;7.47;;;;;;;-2.17;100.00;96942.97;5095627;28;20443;-72
2022/12/09 04:27:18;;;;;;;10.33;7.50;;;;;;;-2.13;100.00;96946.03;5095579;28;20436;-72
2022/12/09 04:29:45;;;;;;;11.73;8.23;;;;;;;-2.14;100.00;96931.41;5095553;28;20479;-72
2022/12/09 04:32:11;;;;;;;17.27;8.07;;;;;;;-2.15;100.00;96925.41;5095482;28;20466;-72
2022/12/09 04:34:38;;;;;;;10.27;7.40;;;;;;;-2.14;100.00;96911.41;5095275;28;20432;-72
2022/12/09 04:37:04;;;;;;;10.53;7.33;;;;;;;-2.07;100.00;96909.72;5095239;28;20489;-72
2022/12/09 04:39:31;;;;;;;8.47;7.00;;;;;;;-2.11;100.00;96905.88;5094875;28;20939;-72
2022/12/09 04:41:57;;;;;;;10.77;7.13;;;;;;;-2.18;100.00;96902.28;5094719;28;20963;-72
2022/12/09 04:44:23;;;;;;;12.50;6.90;;;;;;;-2.24;100.00;96899.56;5095064;28;20433;-72
2022/12/09 04:46:50;;;;;;;9.27;6.53;;;;;;;-2.32;100.00;96902.16;5095029;28;20451;-72
2022/12/09 04:49:16;;;;;;;11.53;7.03;;;;;;;-2.33;100.00;96896.19;5094899;28;20472;-72
2022/12/09 04:51:43;;;;;;;7.93;5.90;;;;;;;-2.36;100.00;96906.91;5094562;28;20472;-72
2022/12/09 04:54:13;;;;;;;9.90;6.47;;;;;;;-2.40;100.00;96897.81;5094532;28;20935;-72
2022/12/09 04:56:41;;;;;;;10.17;6.53;;;;;;;-2.39;100.00;96893.44;5094906;28;20436;-72
2022/12/09 04:59:07;;;;;;;9.83;7.07;;;;;;;-2.34;100.00;96886.72;5094851;28;20432;-72
2022/12/09 05:01:34;;;;;;;8.07;6.30;;;;;;;-2.21;100.00;96884.41;5094467;28;20986;-72
2022/12/09 05:04:00;;;;;;;8.80;6.43;;;;;;;-2.17;100.00;96879.69;5094592;28;20444;-72
2022/12/09 05:06:27;;;;;;;9.43;6.63;;;;;;;-2.18;100.00;96872.84;5094595;28;20467;-72
2022/12/09 05:08:53;;;;;;;8.10;6.60;;;;;;;-2.11;100.00;96869.41;5094650;28;20487;-72
2022/12/09 05:11:22;;;;;;;8.33;6.40;;;;;;;-2.11;100.00;96868.59;5094261;28;20468;-72
2022/12/09 05:13:48;;;;;;;9.03;6.53;;;;;;;-2.11;100.00;96866.00;5094082;28;20936;-72
2022/12/09 05:16:18;;;;;;;11.20;6.33;;;;;;;-2.11;100.00;96864.22;5094362;28;20953;-72
2022/12/09 05:18:46;;;;;;;9.73;7.00;;;;;;;-2.16;100.00;96870.91;5093961;28;20843;-72
2022/12/09 05:21:17;;;;;;;10.33;6.20;;;;;;;-2.00;100.00;96865.59;5094061;28;20475;-72
2022/12/09 05:23:43;;;;;;;8.73;6.40;;;;;;;-1.99;100.00;96868.03;5093720;28;20516;-72
2022/12/09 05:26:13;;;;;;;12.10;6.10;;;;;;;-2.10;100.00;96873.63;5094031;28;20496;-72
2022/12/09 05:28:39;;;;;;;9.43;6.53;;;;;;;-2.10;100.00;96875.41;5094304;28;20525;-72
2022/12/09 05:31:09;;;;;;;7.47;5.83;;;;;;;-2.02;100.00;96872.78;5093752;28;20548;-72
2022/12/09 05:33:36;;;;;;;8.37;6.23;;;;;;;-2.05;100.00;96868.72;5093963;28;20436;-72
2022/12/09 05:36:03;;;;;;;8.73;6.23;;;;;;;-2.06;100.00;96867.13;5093908;28;20875;-72
2022/12/09 05:38:30;;;;;;;8.40;6.27;;;;;;;-2.17;100.00;96871.88;5093686;28;20547;-72
2022/12/09 05:40:59;;;;;;;7.50;6.10;;;;;;;-2.23;100.00;96851.72;5093674;28;20574;-72
2022/12/09 05:43:26;;;;;;;8.73;6.20;;;;;;;-2.09;100.00;96851.00;5093714;28;20526;-72
2022/12/09 05:45:52;;;;;;;9.40;6.10;;;;;;;-2.06;100.00;96843.69;5093374;28;20435;-72
2022/12/09 05:48:19;;;;;;;7.67;6.03;;;;;;;-2.02;100.00;96841.53;5093358;28;20935;-72
2022/12/09 05:50:45;;;;;;;8.37;5.90;;;;;;;-2.02;100.00;96844.97;5093536;28;20456;-72
2022/12/09 05:53:11;;;;;;;7.67;6.53;;;;;;;-1.98;100.00;96841.00;5093520;28;20425;-72
2022/12/09 05:55:41;;;;;;;7.13;5.23;;;;;;;-1.97;100.00;96847.03;5093820;28;20436;-71
2022/12/09 05:58:07;;;;;;;7.37;6.43;;;;;;;-2.02;100.00;96839.75;5093643;28;20437;-72
2022/12/09 06:00:33;;;;;;;8.17;6.27;;;;;;;-1.92;100.00;96837.75;5093181;28;20433;-71
2022/12/09 06:03:00;;;;;;;7.27;5.97;;;;;;;-2.00;100.00;96835.19;5093187;28;20447;-72
2022/12/09 06:05:26;;;;;;;9.67;6.23;;;;;;;-1.99;100.00;96836.78;5093281;28;20450;-72
2022/12/09 06:07:53;;;;;;;8.87;6.30;;;;;;;-1.95;100.00;96832.03;5093346;28;20444;-72
2022/12/09 06:10:19;;;;;;;8.77;6.30;;;;;;;-1.96;100.00;96836.47;5092979;28;21124;-72
2022/12/09 06:12:45;;;;;;;9.50;6.37;;;;;;;-1.98;100.00;96833.19;5093309;28;20443;-71
2022/12/09 06:15:12;;;;;;;12.40;6.47;;;;;;;-1.97;100.00;96834.84;5092632;28;20527;-71
2022/12/09 06:17:38;;;;;;;8.20;6.70;;;;;;;-1.89;100.00;96826.19;5092990;28;20931;-71
2022/12/09 06:20:05;;;;;;;6.97;6.20;;;;;;;-1.80;100.00;96815.53;5092941;28;20911;-71
2022/12/09 06:22:32;;;;;;;8.70;7.03;;;;;;;-1.80;100.00;96817.34;5092767;28;20818;-71
2022/12/09 06:24:58;;;;;;;9.67;6.77;;;;;;;-1.75;100.00;96821.03;5092736;28;20436;-71
2022/12/09 06:27:24;;;;;;;8.70;6.53;;;;;;;-1.81;100.00;96828.75;5092757;28;20440;-71
2022/12/09 06:29:51;;;;;;;8.37;6.73;;;;;;;-1.80;100.00;96819.94;5092980;28;20492;-71
2022/12/09 06:32:17;;;;;;;12.17;7.00;;;;;;;-1.79;100.00;96822.38;5092419;28;20452;-71
2022/12/09 06:34:44;;;;;;;7.93;6.50;;;;;;;-1.74;100.00;96814.84;5092963;28;20472;-71
2022/12/09 06:37:10;;;;;;;8.63;6.80;;;;;;;-1.70;100.00;96815.31;5092787;28;20443;-70
2022/12/09 06:39:36;;;;;;;11.33;6.17;;;;;;;-1.69;100.00;96819.53;5092770;28;20436;-70
2022/12/09 06:42:03;;;;;;;10.33;7.30;;;;;;;-1.69;100.00;96819.53;5092799;28;20456;-70
2022/12/09 06:44:30;;;;;;;11.47;7.20;;;;;;;-1.71;100.00;96816.28;5096526;28;20436;-73
2022/12/09 06:46:56;;;;;;;9.60;6.97;;;;;;;-1.71;100.00;96824.91;5097658;28;20790;-70
2022/12/09 06:49:23;;;;;;;9.10;6.53;;;;;;;-1.73;100.00;96819.06;5096294;28;20478;-70
2022/12/09 06:51:49;;;;;;;8.23;6.70;;;;;;;-1.61;100.00;96819.47;5096163;28;20476;-71
2022/12/09 06:54:16;;;;;;;7.47;6.43;;;;;;;-1.65;100.00;96824.22;5096292;28;20436;-73
2022/12/09 06:56:42;;;;;;;10.30;7.23;;;;;;;-1.71;100.00;96824.91;5097173;28;20439;-73
2022/12/09 06:59:10;;;;;;;9.07;6.60;;;;;;;-1.95;100.00;96832.03;5096880;28;20432;-73
2022/12/09 07:01:37;;;;;;;8.53;6.50;;;;;;;-1.94;100.00;96824.06;5096735;28;20452;-70
2022/12/09 07:04:05;;;;;;;8.23;6.67;;;;;;;-1.89;100.00;96820.97;5096745;28;20527;-71
2022/12/09 07:06:37;;;;;;;7.73;6.13;;;;;;;-1.90;100.00;96827.97;5096535;28;20531;-71
2022/12/09 07:09:09;;;;;;;10.60;6.63;;;;;;;-1.88;100.00;96823.41;5096487;28;20475;-70
2022/12/09 07:11:36;;;;;;;11.03;7.27;;;;;;;-1.87;100.00;96825.03;5096495;28;20463;-70
2022/12/09 07:14:03;;;;;;;9.30;6.97;;;;;;;-1.83;100.00;96826.31;5096636;28;20436;-70
2022/12/09 07:16:30;;;;;;;8.67;6.17;;;;;;;-1.76;100.00;96819.41;5096381;28;20441;-70
2022/12/09 07:18:57;;;;;;;11.00;7.10;;;;;;;-1.72;100.00;96827.72;5096094;28;20432;-71
2022/12/09 07:21:23;;;;;;;11.00;7.03;;;;;;;-1.74;100.00;96825.25;5096321;28;20463;-73
2022/12/09 07:23:50;;;;;;;12.47;7.20;;;;;;;-1.66;100.00;96813.97;5095864;28;20943;-71
2022/12/09 07:26:18;;;;;;;14.70;9.17;;;;;;;-1.49;100.00;96810.28;5095912;28;20436;-71
2022/12/09 07:28:45;;;;;;;9.90;7.10;;;;;;;-1.49;100.00;96813.69;5096237;28;20439;-71
2022/12/09 07:31:26;;;;;;;12.20;7.50;;;;;;;-1.52;100.00;96808.00;5095442;28;20472;-71
2022/12/09 07:33:54;;;;;;;13.47;8.00;;;;;;;-1.44;100.00;96811.34;5096383;28;20745;-71
2022/12/09 07:36:22;;;;;;;12.93;7.43;;;;;;;-1.46;100.00;96813.34;5096772;28;20436;-71
2022/12/09 07:38:48;;;;;;;14.07;7.30;;;;;;;-1.49;100.00;96818.88;5096077;28;20439;-71
2022/12/09 07:41:17;;;;;;;16.07;8.13;;;;;;;-1.54;100.00;96804.78;5095822;28;20464;-71
2022/12/09 07:43:45;;;;;;;13.47;8.53;;;;;;;-1.49;100.00;96805.06;5095241;28;20436;-71
2022/12/09 07:46:13;;;;;;;14.30;8.00;;;;;;;-1.31;100.00;96814.19;5095735;28;20447;-72
2022/12/09 07:48:40;;;;;;;14.03;8.53;;;;;;;-1.27;100.00;96812.03;5095602;28;20432;-71
2022/12/09 07:51:07;;;;;;;17.83;8.20;;;;;;;-1.29;100.00;96812.22;5095694;28;20861;-70
2022/12/09 07:53:37;;;;;;;22.77;9.80;;;;;;;-1.32;100.00;96814.34;5095396;28;20420;-71
2022/12/09 07:56:10;;;;;;;19.00;9.00;;;;;;;-1.21;100.00;96809.53;5095046;28;20437;-71
2022/12/09 07:58:38;;;;;;;24.53;9.07;;;;;;;-1.12;100.00;96805.88;5095712;28;20429;-71
2022/12/09 08:01:06;;;;;;;15.63;7.93;;;;;;;-1.07;100.00;96808.75;5095314;28;21024;-71
2022/12/09 08:03:33;;;;;;;14.87;8.03;;;;;;;-0.82;100.00;96804.09;5095173;28;20432;-71
2022/12/09 08:05:59;;;;;;;13.10;7.73;;;;;;;-0.84;100.00;96813.94;5095458;28;20436;-71
2022/12/09 08:08:26;;;;;;;11.40;7.63;;;;;;;-0.73;100.00;96809.06;5095550;28;20440;-71
2022/12/09 08:10:53;;;;;;;14.57;7.60;;;;;;;-0.65;100.00;96809.00;5095333;28;20231;-71
2022/12/09 08:13:20;;;;;;;12.20;8.20;;;;;;;-0.77;100.00;96801.81;5095500;28;20494;-71
2022/12/09 08:15:47;;;;;;;12.13;7.73;;;;;;;-0.54;100.00;96802.53;5095492;28;20433;-71
2022/12/09 08:18:14;;;;;;;13.50;7.83;;;;;;;-0.72;100.00;96800.25;5094991;28;20935;-71
2022/12/09 08:20:40;;;;;;;15.80;7.97;;;;;;;-0.63;100.00;96809.63;5095091;28;20224;-71
2022/12/09 08:23:07;;;;;;;11.53;7.90;;;;;;;-0.53;100.00;96801.53;5095253;28;20436;-71
2022/12/09 08:25:33;;;;;;;13.43;8.00;;;;;;;-0.49;100.00;96802.78;5095211;28;20234;-71
2022/12/09 08:28:00;;;;;;;11.63;7.90;;;;;;;-0.51;100.00;96795.13;5095182;28;20298;-71
2022/12/09 08:30:26;;;;;;;9.83;7.87;;;;;;;-0.23;100.00;96792.66;5095076;28;20483;-71
2022/12/09 08:32:52;;;;;;;11.20;7.90;;;;;;;-0.06;100.00;96794.91;5095267;28;20573;-71
2022/12/09 08:35:19;;;;;;;12.33;8.33;;;;;;;-0.21;100.00;96798.53;5095198;28;20210;-71
2022/12/09 08:37:45;;;;;;;10.33;7.50;;;;;;;-0.13;100.00;96785.38;5094767;28;20432;-71
2022/12/09 08:40:12;;;;;;;10.90;7.90;;;;;;;-0.05;100.00;96788.66;5095019;28;20200;-71
2022/12/09 08:42:38;;;;;;;10.50;7.93;;;;;;;0.08;100.00;96779.38;5094981;28;20225;-71
2022/12/09 08:45:06;;;;;;;10.67;8.67;;;;;;;0.12;100.00;96786.66;5094700;28;20208;-73
2022/12/09 08:47:33;;;;;;;18.83;8.83;;;;;;;0.24;100.00;96783.34;5094713;28;20234;-71
2022/12/09 08:49:59;;;;;;;10.80;8.00;;;;;;;0.51;100.00;96778.38;5094827;28;20231;-71
2022/12/09 08:52:25;;;;;;;14.63;8.73;;;;;;;0.32;100.00;96781.63;5094712;28;20588;-71
2022/12/09 08:54:52;;;;;;;12.60;8.67;;;;;;;0.30;100.00;96779.19;5094873;28;20208;-71
2022/12/09 08:57:24;;;;;;;12.60;8.77;;;;;;;0.13;100.00;96774.41;5094765;28;20200;-71
2022/12/09 08:59:51;;;;;;;13.43;8.77;;;;;;;0.26;100.00;96774.53;5094191;28;20659;-72
2022/12/09 09:02:17;;;;;;;12.17;8.93;;;;;;;0.00;100.00;96781.09;5094336;28;20230;-72
2022/12/09 09:04:44;;;;;;;10.93;8.83;;;;;;;0.06;100.00;96774.31;5094267;28;20563;-72
2022/12/09 09:07:11;;;;;;;10.90;8.80;;;;;;;-0.01;100.00;96770.81;5093363;28;20199;-72
2022/12/09 09:09:37;;;;;;;12.53;9.10;;;;;;;-0.02;100.00;96782.28;5094236;28;20227;-71
2022/12/09 09:12:04;;;;;;;12.73;9.00;;;;;;;0.28;100.00;96775.97;5094099;28;20228;-72
2022/12/09 09:14:31;;;;;;;11.87;8.77;;;;;;;0.05;100.00;96770.09;5094259;28;20208;-72
2022/12/09 09:16:57;;;;;;;12.57;8.90;;;;;;;0.31;100.00;96766.94;5094390;28;20211;-71
2022/12/09 09:19:25;;;;;;;15.30;9.77;;;;;;;0.21;100.00;96764.63;5094117;28;20210;-71
2022/12/09 09:21:53;;;;;;;16.50;10.00;;;;;;;0.30;100.00;96768.75;5094042;28;20223;-72
2022/12/09 09:24:23;;;;;;;16.47;10.67;;;;;;;0.47;100.00;96771.91;5094012;28;20248;-72
2022/12/09 09:26:50;;;;;;;14.40;10.30;;;;;;;0.30;100.00;96776.59;5094219;28;20658;-72
2022/12/09 09:29:19;;;;;;;11.47;9.40;;;;;;;0.47;100.00;96782.38;5094016;28;20226;-72
2022/12/09 09:31:47;;;;;;;14.57;9.83;;;;;;;0.48;100.00;96779.56;5093778;28;20728;-72
2022/12/09 09:34:15;;;;;;;16.23;10.73;;;;;;;0.52;100.00;96782.59;5093700;28;20215;-72
2022/12/09 09:36:42;;;;;;;13.30;10.67;;;;;;;0.44;98.43;96778.31;5094061;28;20218;-72
2022/12/09 09:39:09;;;;;;;12.97;10.13;;;;;;;0.57;99.17;96775.00;5093683;28;20207;-72
2022/12/09 09:41:53;;;;;;;12.07;9.77;;;;;;;0.64;98.71;96768.88;5093864;28;20223;-72
2022/12/09 09:44:23;;;;;;;14.03;10.50;;;;;;;0.16;98.85;96767.00;5093798;28;20199;-71
2022/12/09 09:46:52;;;;;;;12.20;9.97;;;;;;;0.54;98.74;96765.75;5093931;28;20204;-71
2022/12/09 09:49:52;;;;;;;12.77;10.87;;;;;;;0.32;100.00;96764.94;5093540;28;20718;-72
2022/12/09 09:52:26;;;;;;;14.17;10.17;;;;;;;0.50;98.82;96763.69;5087033;28;20236;-72
2022/12/09 09:54:52;;;;;;;15.60;11.67;;;;;;;0.61;98.19;96750.94;5094622;28;20203;-71
2022/12/09 09:57:26;;;;;;;14.40;10.70;;;;;;;0.59;100.00;96752.13;5093188;28;20697;-72
2022/12/09 10:00:06;;;;;;;13.43;10.80;;;;;;;0.63;99.81;96754.16;5093549;28;20183;-71
2022/12/09 10:02:57;;;;;;;13.60;10.47;;;;;;;0.79;99.28;96755.69;5093424;28;20230;-72
2022/12/09 10:05:27;;;;;;;15.07;10.27;;;;;;;0.90;98.74;96742.91;5093141;28;20207;-72
2022/12/09 10:08:03;;;;;;;15.70;11.27;;;;;;;0.89;99.40;96753.56;5093624;28;20208;-72
2022/12/09 10:10:43;;;;;;;18.47;11.93;;;;;;;0.79;99.85;96745.22;5093574;28;20230;-71
2022/12/09 10:13:12;;;;;;;17.60;11.63;;;;;;;0.40;100.00;96744.91;5093660;28;20192;-72
2022/12/09 10:15:50;;;;;;;13.17;10.63;;;;;;;0.84;98.38;96733.19;5093408;28;20206;-72
2022/12/09 10:18:27;;;;;;;14.77;10.43;;;;;;;0.96;98.34;96728.25;5093088;28;20192;-71
2022/12/09 10:20:53;;;;;;;12.77;11.00;;;;;;;0.71;99.61;96729.69;5093360;28;20310;-71
2022/12/09 10:23:21;;;;;;;15.90;11.20;;;;;;;0.80;98.62;96731.19;5093283;28;20293;-72
2022/12/09 10:25:52;;;;;;;14.27;10.90;;;;;;;1.04;98.41;96721.03;5093352;28;20567;-71
2022/12/09 10:28:29;;;;;;;15.83;11.87;;;;;;;1.00;100.00;96734.72;5093214;28;20196;-71
2022/12/09 10:30:56;;;;;;;16.13;10.83;;;;;;;1.18;98.21;96740.28;5092929;28;20281;-71
2022/12/09 10:33:30;;;;;;;14.13;11.00;;;;;;;0.75;100.00;96733.53;5093058;28;20212;-71
2022/12/09 10:35:57;;;;;;;18.53;12.67;;;;;;;0.91;100.00;96728.03;5093145;28;20240;-72
2022/12/09 10:38:25;;;;;;;14.30;11.00;;;;;;;0.85;100.00;96728.78;5092815;28;20204;-72
2022/12/09 10:43:33;;;;;;;13.90;11.27;;;;;;;0.96;99.41;96728.25;5093097;28;20280;-72
2022/12/09 10:44:24;;;;;;;15.00;10.87;;;;;;;1.08;99.50;96724.91;5092563;28;20212;-72
2022/12/09 10:47:05;;;;;;;15.07;12.00;;;;;;;0.97;100.00;96703.69;5093023;28;20189;-72
2022/12/09 10:49:33;;;;;;;14.23;11.63;;;;;;;0.92;100.00;96700.84;5093119;28;20192;-72
2022/12/09 10:52:00;;;;;;;15.27;11.47;;;;;;;1.01;99.58;96705.75;5092670;28;20237;-72
2022/12/09 10:54:34;;;;;;;14.37;11.80;;;;;;;0.83;100.00;96699.38;5093305;28;20214;-72
2022/12/09 10:57:13;;;;;;;14.73;12.47;;;;;;;0.95;99.76;96700.47;5093052;28;20202;-72
2022/12/09 10:59:41;;;;;;;15.33;11.40;;;;;;;1.16;98.47;96692.53;5092784;28;20260;-71
2022/12/09 11:02:08;;;;;;;12.73;10.33;;;;;;;1.19;97.79;96697.38;5092722;28;20228;-72
2022/12/09 11:04:34;;;;;;;13.77;11.03;;;;;;;1.03;98.37;96692.47;5092584;28;20666;-71
2022/12/09 11:07:13;;;;;;;20.23;12.57;;;;;;;0.87;99.17;96703.22;5092793;28;20204;-72
2022/12/09 11:09:43;;;;;;;15.70;11.93;;;;;;;0.81;100.00;96698.78;5092731;28;20195;-71
2022/12/09 11:12:26;;;;;;;16.83;12.33;;;;;;;0.84;100.00;96687.91;5092720;28;20219;-72
2022/12/09 11:14:55;;;;;;;15.97;11.80;;;;;;;1.00;100.00;96692.84;5092726;28;20207;-72
2022/12/09 11:17:25;;;;;;;17.00;12.07;;;;;;;1.07;98.91;96697.13;5092656;28;20206;-71
2022/12/09 11:20:07;;;;;;;16.30;12.23;;;;;;;0.98;100.00;96693.03;5093471;28;20185;-71
2022/12/09 11:22:37;;;;;;;14.87;11.93;;;;;;;1.11;100.00;96684.44;5092377;28;20232;-71
2022/12/09 11:25:14;;;;;;;15.17;12.10;;;;;;;1.15;100.00;96681.28;5092480;28;20210;-72
2022/12/09 11:27:51;;;;;;;18.60;12.20;;;;;;;1.10;99.95;96690.69;5092742;28;20204;-72
2022/12/09 11:30:20;;;;;;;15.37;11.87;;;;;;;1.19;99.87;96684.31;5095493;28;20306;-72
2022/12/09 11:33:22;;;;;;;16.40;12.30;;;;;;;1.07;99.84;96684.03;5096539;28;20239;-72